createdAt,value
2023-10-10T00:02:30.935Z,96643.10
2023-10-10T00:05:07.546Z,96644.01
2023-10-10T00:07:37.012Z,96648.84
2023-10-10T00:10:06.678Z,96648.46
2023-10-10T00:12:38.229Z,96647.92
2023-10-10T00:15:11.631Z,96654.73
2023-10-10T00:17:42.701Z,96653.13
2023-10-10T00:20:23.631Z,96653.83
2023-10-10T00:23:00.821Z,96659.36
2023-10-10T00:25:33.540Z,96656.65
2023-10-10T00:28:08.324Z,96653.77
2023-10-10T00:30:45.227Z,96660.91
2023-10-10T00:33:17.805Z,96661.73
2023-10-10T00:35:49.356Z,96663.83
2023-10-10T00:38:26.613Z,96663.09
2023-10-10T00:40:58.454Z,96661.09
2023-10-10T00:43:27.471Z,96664.39
2023-10-10T00:45:59.290Z,96664.02
2023-10-10T00:48:31.564Z,96664.39
2023-10-10T00:51:13.262Z,96662.27
2023-10-10T00:53:46.751Z,96662.98
2023-10-10T00:56:17.888Z,96661.52
2023-10-10T00:58:49.790Z,96657.56
2023-10-10T01:01:21.264Z,96668.78
2023-10-10T01:03:51.900Z,96669.32
2023-10-10T01:06:28.513Z,96670.23
2023-10-10T01:09:17.970Z,96663.73
2023-10-10T01:11:50.097Z,96664.00
2023-10-10T01:14:28.776Z,96669.41
2023-10-10T01:16:59.673Z,96665.25
2023-10-10T01:19:32.297Z,96662.05
2023-10-10T01:22:02.134Z,96663.14
2023-10-10T01:24:33.380Z,96659.56
2023-10-10T01:27:06.787Z,96659.45
2023-10-10T01:29:43.176Z,96655.88
2023-10-10T01:32:12.911Z,96652.47
2023-10-10T01:34:47.335Z,96654.90
2023-10-10T01:37:22.641Z,96652.45
2023-10-10T01:40:07.602Z,96649.48
2023-10-10T01:42:38.937Z,96644.50
2023-10-10T01:45:11.522Z,96642.56
2023-10-10T01:47:41.560Z,96639.63
2023-10-10T01:50:12.451Z,96636.27
2023-10-10T01:52:48.419Z,96636.63
2023-10-10T01:55:18.677Z,96642.27
2023-10-10T01:57:49.622Z,96648.34
2023-10-10T02:00:29.284Z,96651.55
2023-10-10T03:18:11.565Z,96671.27
2023-10-10T03:21:14.478Z,96673.21
2023-10-10T03:23:55.688Z,96673.39
2023-10-10T03:26:57.520Z,96672.73
2023-10-10T03:29:49.232Z,96681.98
2023-10-10T03:32:21.053Z,96680.90
2023-10-10T03:35:21.268Z,96679.84
2023-10-10T03:38:06.522Z,96676.25
2023-10-10T03:40:55.947Z,96677.50
2023-10-10T03:43:44.668Z,96670.84
2023-10-10T03:46:38.879Z,96674.67
2023-10-10T03:49:28.212Z,96682.80
2023-10-10T03:52:17.137Z,96681.00
2023-10-10T03:55:06.339Z,96684.21
2023-10-10T03:57:56.025Z,96687.06
2023-10-10T04:00:43.865Z,96701.02
2023-10-10T04:03:33.494Z,96699.81
2023-10-10T04:06:25.411Z,96707.00
2023-10-10T04:09:14.887Z,96712.19
2023-10-10T04:12:04.109Z,96719.29
2023-10-10T04:14:52.824Z,96721.98
2023-10-10T04:17:42.135Z,96725.14
2023-10-10T04:20:30.022Z,96726.80
2023-10-10T04:23:18.966Z,96724.75
2023-10-10T04:26:08.529Z,96727.61
2023-10-10T04:28:57.590Z,96732.75
2023-10-10T04:31:46.398Z,96730.59
2023-10-10T04:34:34.511Z,96727.83
2023-10-10T04:37:23.381Z,96727.95
2023-10-10T04:40:12.421Z,96726.86
2023-10-10T04:43:00.594Z,96725.83
2023-10-10T04:49:09.135Z,96731.08
2023-10-10T04:51:58.218Z,96733.84
2023-10-10T04:54:46.399Z,96739.20
2023-10-10T04:57:35.680Z,96747.98
2023-10-10T05:00:24.455Z,96751.46
2023-10-10T05:03:12.752Z,96747.51
2023-10-10T05:06:01.947Z,96755.69
2023-10-10T05:08:51.446Z,96762.45
2023-10-10T05:11:40.764Z,96757.38
2023-10-10T05:14:29.704Z,96758.73
2023-10-10T05:17:18.662Z,96758.38
2023-10-10T05:20:08.344Z,96764.67
2023-10-10T05:22:57.111Z,96759.75
2023-10-10T05:25:26.443Z,96762.78
2023-10-10T05:28:00.986Z,96761.26
2023-10-10T05:30:41.746Z,96762.48
2023-10-10T05:33:11.216Z,96766.96
2023-10-10T05:35:42.373Z,96769.31
2023-10-10T05:38:12.299Z,96770.34
2023-10-10T05:40:41.606Z,96776.31
2023-10-10T05:43:17.618Z,96779.52
2023-10-10T05:45:50.360Z,96782.51
2023-10-10T05:48:19.740Z,96789.27
2023-10-10T05:50:50.093Z,96793.39
2023-10-10T05:53:19.734Z,96797.90
2023-10-10T05:55:56.110Z,96799.47
2023-10-10T05:58:25.669Z,96801.21
2023-10-10T06:00:56.436Z,96805.98
2023-10-10T06:03:27.494Z,96804.70
2023-10-10T06:05:58.563Z,96808.86
2023-10-10T06:08:28.104Z,96808.54
2023-10-10T06:10:58.427Z,96808.98
2023-10-10T06:13:30.870Z,96804.96
2023-10-10T06:16:07.665Z,96810.60
2023-10-10T06:18:36.899Z,96813.41
2023-10-10T06:21:10.289Z,96816.71
2023-10-10T06:23:43.613Z,96820.56
2023-10-10T06:26:16.431Z,96822.84
2023-10-10T06:28:49.580Z,96825.75
2023-10-10T06:31:22.571Z,96829.00
2023-10-10T06:33:52.984Z,96828.61
2023-10-10T06:36:22.436Z,96830.27
2023-10-10T06:39:13.932Z,96831.84
2023-10-10T06:41:49.949Z,96834.06
2023-10-10T06:44:28.623Z,96834.05
2023-10-10T06:46:57.971Z,96839.55
2023-10-10T06:49:28.102Z,96839.84
2023-10-10T06:51:59.771Z,96838.98
2023-10-10T06:54:31.345Z,96834.89
2023-10-10T06:57:02.431Z,96843.59
2023-10-10T06:59:32.107Z,96844.30
2023-10-10T07:02:02.055Z,96849.30
2023-10-10T07:04:37.492Z,96850.50
2023-10-10T07:07:10.752Z,96849.09
2023-10-10T07:09:44.265Z,96851.55
2023-10-10T07:12:15.612Z,96853.58
2023-10-10T07:14:49.742Z,96849.71
2023-10-10T07:17:21.656Z,96849.58
2023-10-10T07:20:18.196Z,96851.13
2023-10-10T07:22:48.652Z,96853.47
2023-10-10T07:25:40.590Z,96855.04
2023-10-10T07:28:15.832Z,96854.57
2023-10-10T07:30:45.954Z,96859.58
2023-10-10T07:33:15.578Z,96857.48
2023-10-10T07:35:45.571Z,96860.17
2023-10-10T07:38:17.439Z,96865.08
2023-10-10T07:40:46.802Z,96865.25
2023-10-10T07:43:16.547Z,96866.52
2023-10-10T07:45:46.046Z,96871.08
2023-10-10T07:48:15.552Z,96864.05
2023-10-10T07:50:51.090Z,96862.65
2023-10-10T07:53:21.719Z,96861.53
2023-10-10T07:56:02.878Z,96863.06
2023-10-10T07:58:51.998Z,96860.84
2023-10-10T08:01:25.019Z,96865.90
2023-10-10T08:03:53.668Z,96872.62
2023-10-10T08:06:24.081Z,96869.48
2023-10-10T08:09:15.835Z,96869.20
2023-10-10T08:11:48.393Z,96864.87
2023-10-10T08:14:19.335Z,96861.79
2023-10-10T08:16:48.843Z,96862.63
2023-10-10T08:19:18.177Z,96863.91
2023-10-10T08:21:51.895Z,96856.13
2023-10-10T08:24:21.717Z,96859.73
2023-10-10T08:26:53.331Z,96858.99
2023-10-10T08:29:28.809Z,96864.50
2023-10-10T08:31:58.671Z,96864.63
2023-10-10T08:34:27.950Z,96868.38
2023-10-10T08:37:06.168Z,96867.34
2023-10-10T08:39:38.347Z,96865.45
2023-10-10T08:42:17.217Z,96869.32
2023-10-10T08:44:57.470Z,96870.70
2023-10-10T08:47:28.660Z,96871.71
2023-10-10T08:49:59.114Z,96874.02
2023-10-10T08:52:29.456Z,96874.02
2023-10-10T08:54:59.875Z,96869.71
2023-10-10T08:57:31.098Z,96867.06
2023-10-10T09:00:01.070Z,96866.43
2023-10-10T09:02:35.674Z,96864.16
2023-10-10T09:05:09.589Z,96869.63
2023-10-10T09:07:44.914Z,96869.89
2023-10-10T09:10:17.342Z,96866.73
2023-10-10T09:13:02.832Z,96871.11
2023-10-10T09:15:35.472Z,96874.39
2023-10-10T09:18:19.208Z,96875.01
2023-10-10T09:20:49.042Z,96881.17
2023-10-10T09:23:25.343Z,96883.81
2023-10-10T09:26:13.943Z,96883.79
2023-10-10T09:28:47.141Z,96885.18
2023-10-10T09:31:28.916Z,96881.60
2023-10-10T09:33:59.255Z,96878.20
2023-10-10T09:36:29.421Z,96880.07
2023-10-10T09:39:27.952Z,96880.95
2023-10-10T09:41:59.516Z,96868.17
2023-10-10T09:44:52.075Z,96873.20
2023-10-10T09:47:41.993Z,96869.92
2023-10-10T09:50:24.032Z,96867.43
2023-10-10T09:53:00.067Z,96863.39
2023-10-10T09:55:33.830Z,96866.79
2023-10-10T09:58:07.431Z,96863.80
2023-10-10T10:00:41.592Z,96867.10
2023-10-10T10:03:29.619Z,96864.61
2023-10-10T10:06:02.405Z,96861.02
2023-10-10T10:08:46.134Z,96858.84
2023-10-10T10:11:18.399Z,96852.75
2023-10-10T10:14:17.159Z,96855.08
2023-10-10T10:16:56.708Z,96855.09
2023-10-10T10:19:30.572Z,96857.77
2023-10-10T10:22:15.645Z,96851.91
2023-10-10T10:24:48.048Z,96852.73
2023-10-10T10:27:41.278Z,96850.67
2023-10-10T10:30:20.129Z,96843.99
2023-10-10T10:32:57.204Z,96845.51
2023-10-10T10:35:38.568Z,96846.30
2023-10-10T10:38:09.563Z,96841.23
2023-10-10T10:40:43.345Z,96837.54
2023-10-10T10:43:22.018Z,96836.45
2023-10-10T10:45:54.614Z,96827.46
2023-10-10T10:48:36.727Z,96831.03
2023-10-10T10:51:26.774Z,96828.20
2023-10-10T10:54:00.546Z,96825.95
2023-10-10T10:56:31.116Z,96823.61
2023-10-10T10:59:23.339Z,96826.08
2023-10-10T11:01:53.930Z,96828.44
2023-10-10T11:04:34.353Z,96825.50
2023-10-10T11:07:11.144Z,96825.85
2023-10-10T11:09:55.039Z,96824.08
2023-10-10T11:12:33.612Z,96835.04
2023-10-10T11:15:10.408Z,96835.45
2023-10-10T11:17:51.960Z,96837.73
2023-10-10T11:20:54.922Z,96840.48
2023-10-10T11:23:36.247Z,96840.89
2023-10-10T11:26:09.660Z,96841.57
2023-10-10T11:28:49.663Z,96842.12
2023-10-10T11:31:25.899Z,96837.53
2023-10-10T11:34:12.310Z,96839.77
2023-10-10T11:36:42.254Z,96844.92
2023-10-10T11:39:33.582Z,96845.66
2023-10-10T11:42:06.209Z,96844.77
2023-10-10T11:44:35.769Z,96844.65
2023-10-10T11:47:09.221Z,96848.15
2023-10-10T11:49:43.216Z,96855.31
2023-10-10T11:52:21.878Z,96848.71
2023-10-10T11:54:51.326Z,96855.16
2023-10-10T11:57:20.830Z,96854.42
2023-10-10T11:59:50.979Z,96856.70
2023-10-10T12:02:31.546Z,96855.66
2023-10-10T12:05:16.683Z,96857.09
2023-10-10T12:07:46.244Z,96859.60
2023-10-10T12:10:19.164Z,96855.84
2023-10-10T12:12:48.969Z,96858.75
2023-10-10T12:15:21.158Z,96859.42
2023-10-10T12:17:55.447Z,96860.69
2023-10-10T12:20:28.272Z,96857.46
2023-10-10T12:22:57.679Z,96858.90
2023-10-10T12:25:26.914Z,96852.20
2023-10-10T12:28:02.188Z,96849.04
2023-10-10T12:30:33.309Z,96848.39
2023-10-10T12:33:02.993Z,96845.81
2023-10-10T12:35:32.589Z,96846.82
2023-10-10T12:38:03.082Z,96843.63
2023-10-10T12:40:35.080Z,96842.65
2023-10-10T12:43:05.426Z,96842.98
2023-10-10T12:45:34.731Z,96841.47
2023-10-10T12:48:06.100Z,96838.77
2023-10-10T12:50:36.459Z,96834.32
2023-10-10T12:53:17.326Z,96830.45
2023-10-10T12:55:53.524Z,96830.27
2023-10-10T12:58:24.595Z,96826.88
2023-10-10T13:00:55.008Z,96824.83
2023-10-10T13:03:33.144Z,96822.83
2023-10-10T13:06:04.624Z,96827.58
2023-10-10T13:08:41.949Z,96824.33
2023-10-10T13:11:21.083Z,96823.83
2023-10-10T13:13:53.112Z,96820.15
2023-10-10T13:16:50.106Z,96821.63
2023-10-10T13:19:22.805Z,96820.30
2023-10-10T13:21:55.025Z,96820.66
2023-10-10T13:24:25.798Z,96815.09
2023-10-10T13:26:55.218Z,96817.02
2023-10-10T13:29:24.883Z,96814.45
2023-10-10T13:31:53.515Z,96816.17
2023-10-10T13:34:26.396Z,96819.43
2023-10-10T13:36:55.715Z,96818.34
2023-10-10T13:39:42.650Z,96820.73
2023-10-10T13:42:16.176Z,96815.23
2023-10-10T13:44:45.892Z,96815.20
2023-10-10T13:47:18.669Z,96817.47
2023-10-10T13:50:00.659Z,96812.46
2023-10-10T13:52:31.512Z,96810.82
2023-10-10T13:55:00.802Z,96810.27
2023-10-10T13:57:30.206Z,96810.76
2023-10-10T13:59:59.364Z,96812.27
2023-10-10T14:02:33.904Z,96814.70
2023-10-10T14:05:04.342Z,96810.21
2023-10-10T14:07:34.336Z,96811.64
2023-10-10T14:10:07.018Z,96812.35
2023-10-10T14:12:37.196Z,96812.03
2023-10-10T14:15:06.867Z,96809.72
2023-10-10T14:17:36.237Z,96812.68
2023-10-10T14:20:21.791Z,96814.25
2023-10-10T14:22:56.195Z,96819.65
2023-10-10T14:25:26.157Z,96820.13
2023-10-10T14:27:56.332Z,96821.77
2023-10-10T14:30:25.669Z,96824.02
2023-10-10T14:32:59.979Z,96816.61
2023-10-10T14:35:29.664Z,96818.71
2023-10-10T14:38:02.856Z,96822.23
2023-10-10T14:40:34.770Z,96826.99
2023-10-10T14:43:08.812Z,96823.19
2023-10-10T14:45:38.911Z,96824.35
2023-10-10T14:48:08.861Z,96831.98
2023-10-10T14:50:39.101Z,96837.78
2023-10-10T14:53:11.612Z,96840.13
2023-10-10T14:55:41.815Z,96840.64
2023-10-10T14:58:10.811Z,96845.52
2023-10-10T15:00:46.731Z,96848.21
2023-10-10T15:03:20.543Z,96849.42
2023-10-10T15:05:53.943Z,96846.81
2023-10-10T15:08:24.502Z,96854.37
2023-10-10T15:10:54.959Z,96859.52
2023-10-10T15:13:27.635Z,96859.70
2023-10-10T15:15:58.227Z,96863.16
2023-10-10T15:18:27.735Z,96871.90
2023-10-10T15:20:59.693Z,96875.60
2023-10-10T15:23:30.290Z,96880.23
2023-10-10T15:26:07.579Z,96884.00
2023-10-10T15:28:36.897Z,96890.37
2023-10-10T15:31:06.197Z,96893.43
2023-10-10T15:33:38.053Z,96900.92
2023-10-10T15:36:07.953Z,96907.03
2023-10-10T15:38:37.362Z,96909.25
2023-10-10T15:41:22.772Z,96912.48
2023-10-10T15:43:53.235Z,96911.19
2023-10-10T15:46:33.137Z,96917.66
2023-10-10T15:49:24.827Z,96924.68
2023-10-10T15:52:06.341Z,96928.23
2023-10-10T15:54:36.539Z,96928.16
2023-10-10T15:57:11.141Z,96931.60
2023-10-10T15:59:44.036Z,96932.82
2023-10-10T16:02:15.697Z,96932.31
2023-10-10T16:04:46.468Z,96936.55
2023-10-10T16:07:18.260Z,96947.36
2023-10-10T16:09:48.021Z,96955.95
2023-10-10T16:12:17.958Z,96961.68
2023-10-10T16:14:49.329Z,96964.05
2023-10-10T16:17:18.434Z,96971.83
2023-10-10T16:19:48.895Z,96974.58
2023-10-10T16:22:18.811Z,96978.52
2023-10-10T16:24:53.223Z,96983.77
2023-10-10T16:27:23.376Z,96985.67
2023-10-10T16:29:57.346Z,96994.63
2023-10-10T16:32:28.265Z,96996.03
2023-10-10T16:34:58.206Z,97004.92
2023-10-10T16:37:26.693Z,97004.98
2023-10-10T16:39:56.114Z,97004.42
2023-10-10T16:42:25.815Z,97010.13
2023-10-10T16:44:55.916Z,97013.38
2023-10-10T16:47:26.114Z,97016.52
2023-10-10T16:49:55.413Z,97017.48
2023-10-10T16:52:27.906Z,97021.14
2023-10-10T16:54:58.533Z,97021.13
2023-10-10T16:57:29.168Z,97026.38
2023-10-10T16:59:59.585Z,97030.98
2023-10-10T17:02:32.646Z,97034.07
2023-10-10T17:05:02.690Z,97034.70
2023-10-10T17:07:32.149Z,97037.72
2023-10-10T17:10:07.216Z,97039.80
2023-10-10T17:12:36.555Z,97040.63
2023-10-10T17:15:06.931Z,97043.35
2023-10-10T17:17:37.763Z,97047.82
2023-10-10T17:20:07.562Z,97045.60
2023-10-10T17:22:37.580Z,97045.70
2023-10-10T17:25:10.096Z,97050.04
2023-10-10T17:27:40.377Z,97054.87
2023-10-10T17:30:15.801Z,97053.65
2023-10-10T17:32:47.724Z,97060.85
2023-10-10T17:35:19.244Z,97061.12
2023-10-10T17:37:48.657Z,97064.14
2023-10-10T17:40:18.205Z,97066.94
2023-10-10T17:42:50.324Z,97068.27
2023-10-10T17:45:19.769Z,97067.21
2023-10-10T17:47:49.086Z,97063.59
2023-10-10T17:50:18.648Z,97056.88
2023-10-10T17:52:48.186Z,97060.19
2023-10-10T17:55:17.477Z,97065.73
2023-10-10T17:57:46.870Z,97064.37
2023-10-10T18:00:16.337Z,97072.52
2023-10-10T18:02:48.505Z,97075.08
2023-10-10T18:05:18.093Z,97081.63
2023-10-10T18:07:47.628Z,97080.58
2023-10-10T18:10:17.715Z,97081.23
2023-10-10T18:12:49.462Z,97082.45
2023-10-10T18:15:20.352Z,97080.46
2023-10-10T18:17:57.012Z,97086.77
2023-10-10T18:20:26.954Z,97088.59
2023-10-10T18:22:57.735Z,97087.46
2023-10-10T18:25:27.513Z,97087.00
2023-10-10T18:27:56.973Z,97085.50
2023-10-10T18:30:28.319Z,97088.55
2023-10-10T18:32:58.517Z,97089.66
2023-10-10T18:35:30.059Z,97093.12
2023-10-10T18:37:59.394Z,97093.32
2023-10-10T18:40:29.739Z,97094.84
2023-10-10T18:42:59.693Z,97095.60
2023-10-10T18:45:31.479Z,97092.38
2023-10-10T18:48:00.905Z,97091.81
2023-10-10T18:50:36.048Z,97096.61
2023-10-10T18:53:05.675Z,97099.13
2023-10-10T18:55:37.352Z,97100.50
2023-10-10T18:58:06.857Z,97105.09
2023-10-10T19:00:38.111Z,97110.41
2023-10-10T19:03:08.838Z,97113.69
2023-10-10T19:05:41.095Z,97118.18
2023-10-10T19:08:10.598Z,97122.54
2023-10-10T19:10:40.597Z,97121.77
2023-10-10T19:13:10.759Z,97124.35
2023-10-10T19:15:40.008Z,97129.94
2023-10-10T19:18:09.407Z,97127.98
2023-10-10T19:20:38.718Z,97125.15
2023-10-10T19:23:11.310Z,97122.02
2023-10-10T19:25:48.201Z,97119.57
2023-10-10T19:28:18.017Z,97124.04
2023-10-10T19:30:47.756Z,97125.37
2023-10-10T19:33:17.158Z,97129.27
2023-10-10T19:35:46.996Z,97129.08
2023-10-10T19:38:18.482Z,97130.65
2023-10-10T19:40:48.857Z,97130.60
2023-10-10T19:43:18.064Z,97128.91
2023-10-10T19:45:47.512Z,97134.06
2023-10-10T19:48:19.448Z,97135.15
2023-10-10T19:50:50.295Z,97137.59
2023-10-10T19:53:20.623Z,97135.42
2023-10-10T19:55:52.821Z,97129.63
2023-10-10T19:58:22.538Z,97132.85
2023-10-10T20:00:52.124Z,97129.77
2023-10-10T20:03:29.889Z,97127.75
2023-10-10T20:05:59.912Z,97127.64
2023-10-10T20:08:30.639Z,97127.49
2023-10-10T20:10:59.921Z,97131.27
2023-10-10T20:13:29.058Z,97133.51
2023-10-10T20:15:58.520Z,97131.27
2023-10-10T20:18:28.475Z,97129.34
2023-10-10T20:20:57.812Z,97127.82
2023-10-10T20:23:27.168Z,97129.54
2023-10-10T20:25:56.475Z,97132.77
2023-10-10T20:28:27.147Z,97133.42
2023-10-10T20:30:57.221Z,97140.41
2023-10-10T20:33:26.488Z,97136.46
2023-10-10T20:35:55.759Z,97132.74
2023-10-10T20:38:25.031Z,97128.39
2023-10-10T20:40:53.698Z,97125.38
2023-10-10T20:43:22.947Z,97130.90
2023-10-10T20:45:54.618Z,97128.08
2023-10-10T20:48:24.043Z,97132.45
2023-10-10T20:50:53.573Z,97135.34
2023-10-10T20:53:23.013Z,97139.16
2023-10-10T20:55:52.298Z,97141.41
2023-10-10T20:58:21.644Z,97146.47
2023-10-10T21:00:51.031Z,97147.67
2023-10-10T21:03:20.517Z,97144.69
2023-10-10T21:05:51.347Z,97144.67
2023-10-10T21:08:20.656Z,97148.07
2023-10-10T21:10:52.012Z,97145.81
2023-10-10T21:13:21.413Z,97140.09
2023-10-10T21:15:51.030Z,97149.70
2023-10-10T21:18:20.893Z,97152.41
2023-10-10T21:21:02.758Z,97147.46
2023-10-10T21:23:34.192Z,97142.94
2023-10-10T21:26:05.798Z,97143.59
2023-10-10T21:28:35.568Z,97148.61
2023-10-10T21:31:11.727Z,97148.33
2023-10-10T21:33:42.410Z,97143.65
2023-10-10T21:36:14.976Z,97142.16
2023-10-10T21:38:45.315Z,97149.48
2023-10-10T21:41:14.632Z,97154.33
2023-10-10T21:43:43.827Z,97157.12
2023-10-10T21:46:13.151Z,97154.70
2023-10-10T21:48:42.486Z,97156.55
2023-10-10T21:51:19.097Z,97163.36
2023-10-10T21:53:48.372Z,97158.35
2023-10-10T21:56:17.790Z,97167.52
2023-10-10T21:58:47.003Z,97165.76
2023-10-10T22:01:16.553Z,97161.58
2023-10-10T22:03:47.064Z,97164.95
2023-10-10T22:06:19.452Z,97169.52
2023-10-10T22:08:48.926Z,97167.64
2023-10-10T22:11:18.376Z,97164.24
2023-10-10T22:13:51.160Z,97167.17
2023-10-10T22:16:20.717Z,97170.02
2023-10-10T22:18:50.528Z,97175.60
2023-10-10T22:21:21.596Z,97184.16
2023-10-10T22:23:50.813Z,97189.22
2023-10-10T22:26:22.164Z,97183.51
2023-10-10T22:28:51.402Z,97189.08
2023-10-10T22:31:20.825Z,97191.98
2023-10-10T22:33:49.632Z,97190.02
2023-10-10T22:36:20.428Z,97188.40
2023-10-10T22:38:49.807Z,97188.48
2023-10-10T22:41:20.197Z,97187.33
2023-10-10T22:43:50.324Z,97185.11
2023-10-10T22:46:19.746Z,97184.61
2023-10-10T22:48:49.344Z,97199.71
2023-10-10T22:51:18.907Z,97209.28
2023-10-10T22:53:48.403Z,97206.61
2023-10-10T22:56:19.679Z,97205.86
2023-10-10T22:58:48.473Z,97202.23
2023-10-10T23:01:18.110Z,97203.68
2023-10-10T23:03:48.561Z,97199.03
2023-10-10T23:06:19.630Z,97185.69
2023-10-10T23:08:50.335Z,97190.71
2023-10-10T23:11:19.891Z,97191.15
2023-10-10T23:13:50.776Z,97181.75
2023-10-10T23:16:21.302Z,97178.24
2023-10-10T23:18:50.413Z,97180.80
2023-10-10T23:21:21.116Z,97178.60
2023-10-10T23:23:50.959Z,97166.69
2023-10-10T23:26:21.291Z,97169.63
2023-10-10T23:28:53.962Z,97168.45
2023-10-10T23:31:23.350Z,97162.80
2023-10-10T23:33:52.638Z,97158.58
2023-10-10T23:36:22.980Z,97159.46
2023-10-10T23:38:52.393Z,97162.59
2023-10-10T23:41:22.982Z,97165.64
2023-10-10T23:43:52.433Z,97164.20
2023-10-10T23:46:24.274Z,97166.91
2023-10-10T23:48:56.429Z,97171.23
2023-10-10T23:51:25.994Z,97178.27
2023-10-10T23:53:55.385Z,97177.46
2023-10-10T23:56:25.108Z,97169.15
2023-10-10T23:58:55.001Z,97171.42
